Tiempo atmosférico en la estación meteorológica de Alcañices, Zamora (840 m.)



Fecha
DESCASC
Temp. máxima en grados centígrados (hora)
DESCASC
Temp. mínima en grados centígrados (hora)
DESCASC
Temp. media en grados centígrados
DESCASC
Racha de viento máxima en m/sg (hora)
DESCASC
Velocidad máxima media en intervalos de 10 minutos(hora)
DESCASC
Precipitaciones diarias en mm
DESCASC
Precipitaciones de 00:00 a 06:00 en mm
DESCASC
Precipitaciones de 06:00 a 12:00 en mm
DESCASC
Precipitaciones de 12:00 a 18:00 en mm
DESCASC
Precipitaciones de 18:00 a 24:00 en mm
DESCASC
17-09-2020 26.4 (15:20) 14 (23:59) 20.2 13.89 (18:00) 8.06 (23:30) 4.8 0 0.2 2.8 1.8
15-09-2020 26.7 (17:50) 12.6 (06:20) 19.7 9.44 (17:50) 5.56 (16:40) 0 0 0 0 0
14-09-2020 28.5 (16:40) 16.9 (09:10) 22.7 13.61 (18:10) 9.17 (18:20) 0 0 0 0 0
13-09-2020 32.8 (16:50) 14.5 (00:00) 23.6 9.17 (17:50) 5.56 (17:50) 0 0 0 0 0
12-09-2020 31.4 (17:40) 13.8 (08:00) 22.6 8.33 (14:10) 6.11 (10:40) 0 0 0 0 0
11-09-2020 31.1 (19:00) 13.4 (00:00) 22.3 8.33 (10:50) 6.11 (10:30) 0 0 0 0 0
10-09-2020 31.4 (17:50) 12.3 (00:00) 21.8 7.22 (01:10) 5 (07:10) 0 0 0 0 0
09-09-2020 31.5 (19:00) 11.6 (07:20) 21.6 7.22 (08:50) 5.56 (05:30) 0 0 0 0 0
08-09-2020 25.8 (18:40) 9.4 (00:00) 17.6 12.22 (00:30) 9.17 (00:40) 0 0 0 0 0
07-09-2020 23.9 (17:10) 8.8 (07:30) 16.3 12.22 (11:30) 8.89 (11:10) 0 0 0 0 0
06-09-2020 30.1 (17:10) 12.8 (00:00) 21.5 12.78 (23:00) 8.61 (23:00) 0 0 0 0 0
05-09-2020 32.9 (16:50) 14.2 (00:00) 23.6 10 (23:50) 6.67 (23:10) 0 0 0 0 0
04-09-2020 32.4 (18:20) 14.6 (00:00) 23.5 9.17 (18:10) 4.72 (16:10) 0 0 0 0 0
03-09-2020 31.1 (17:30) 10.1 (00:00) 20.6 7.5 (17:50) 4.44 (03:40) 0 0 0 0 0
02-09-2020 29.4 (17:50) 11 (00:00) 20.2 11.67 (00:10) 7.78 (10:00) 0 0 0 0 0
01-09-2020 28.9 (17:50) 11.3 (00:00) 20.1 9.17 (23:30) 6.39 (23:30) 0 0 0 0 0
31-08-2020 24.5 (18:50) 6 (00:00) 15.3 7.22 (00:30) 4.44 (06:30) 0 0 0 0 0
30-08-2020 22.6 (17:20) 5.9 (00:00) 14.3 8.61 (11:50) 5 (20:00) 0 0 0 0 0
29-08-2020 22.8 (17:20) 6.3 (00:00) 14.5 10.28 (17:50) 7.5 (17:50) 0 0 0 0 0
28-08-2020 23.8 (15:10) 11.4 (00:00) 17.6 12.22 (17:00) 7.78 (17:00) 0 0 0 0 0
27-08-2020 32 (16:40) 15.6 (00:00) 23.8 9.72 (18:20) 5.56 (19:00) 0 0 0 0 0
26-08-2020 31.9 (18:10) 14 (00:00) 22.9 9.44 (17:50) 4.17 (17:10) 0 0 0 0 0
25-08-2020 31.5 (16:40) 15.3 (00:00) 23.4 9.17 (16:50) 5.83 (14:30) 0 0 0 0 0
24-08-2020 31.8 (18:40) 12.2 (07:50) 22 9.72 (10:00) 7.22 (10:00) 0 0 0 0 0
23-08-2020 30.8 (18:40) 11.1 (00:00) 20.9 7.5 (10:20) 5.56 (09:50) 0 0 0 0 0
22-08-2020 27.3 (16:40) 8.3 (00:00) 17.8 7.22 (16:50) 3.89 (16:50) 0 0 0 0 0
21-08-2020 23 (18:30) 14.1 (08:50) 18.6 10 (18:30) 6.39 (16:50) 0 0 0 0 0

Gráficas

Temp. máximas Temp. mínimas Temp. medias Precipitaciones Rachas de viento máximas Velocidades máximas media en intervalos de 10 minutos

Datos horarios

Fecha y hora oficial Temperatura (ºC) Velocidad del viento (km/h) Dirección del viento Racha (km/h) Dirección de racha Precipitación (mm) Presión (hPa) Tendencia (hPa) Humedad (%)
2020-09-19 23:00:00 13.8 9 Sudoeste 19 Sudoeste 0.4 -- -- 99
2020-09-19 22:00:00 13.7 12 Sudoeste 28 Sudoeste 0 -- -- 98
2020-09-19 21:00:00 13.9 16 Sudoeste 24 Sudoeste 0 -- -- 95
2020-09-19 20:00:00 14.1 14 Sudoeste 36 Sudoeste 0 -- -- 92
2020-09-19 19:00:00 15.6 21 Sudoeste 39 Sudoeste 0 -- -- 81
2020-09-19 18:00:00 17.8 24 Sudoeste 38 Sudoeste 0 -- -- 63
2020-09-19 17:00:00 18.2 18 Oeste 32 Sudoeste 0 -- -- 70
2020-09-19 16:00:00 17 14 Sudoeste 33 Sudoeste 0 -- -- 86
2020-09-19 15:00:00 16.1 19 Sudoeste 30 Sudoeste 0 -- -- 91
2020-09-19 14:00:00 14.8 17 Sudoeste 30 Sudoeste 2.8 -- -- 96
2020-09-19 13:00:00 15.1 20 Sudoeste 28 Sudoeste 0 -- -- 93
2020-09-19 12:00:00 13.5 10 Oeste 18 Sudoeste 0.4 -- -- 100
2020-09-19 11:00:00 13 11 Sudoeste 18 Sudoeste 0.2 -- -- 100
2020-09-19 10:00:00 12.7 8 Sudoeste 14 Oeste 0.6 -- -- 100
2020-09-19 09:00:00 12.2 6 Oeste 19 Noroeste 3.2 -- -- 100
2020-09-19 08:00:00 12.2 12 Noroeste 20 Norte 6.6 -- -- 100
2020-09-19 07:00:00 12.4 10 Norte 16 Nordeste 1 -- -- 100
2020-09-19 06:00:00 12.4 12 Nordeste 18 Nordeste 1.2 -- -- 100
2020-09-19 05:00:00 12.3 10 Nordeste 21 Nordeste 0 -- -- 99
2020-09-19 04:00:00 12.1 13 Nordeste 16 Nordeste 0 -- -- 98
2020-09-19 03:00:00 12.5 6 Este 13 Nordeste 2 -- -- 97
2020-09-19 02:00:00 13.1 8 Nordeste 14 Este 0 -- -- 92
2020-09-19 01:00:00 12.9 7 Este 14 Este 0 -- -- 91
2020-09-19 00:00:00 12.6 11 Nordeste 15 Este 0 -- -- 95
2020-09-18 23:00:00 13.2 10 Nordeste 13 Nordeste 0 -- -- 94
2020-09-18 22:00:00 13.5 9 Nordeste 15 Nordeste 0 -- -- 94
2020-09-18 21:00:00 13.9 8 Este 10 Este 0 -- -- 94
2020-09-18 20:00:00 15.3 5 Sudeste 11 Sudoeste 0 -- -- 86
2020-09-18 19:00:00 14 12 Sudoeste 38 Sur 0.6 -- -- 93
2020-09-18 18:00:00 20.3 4 Sudoeste 25 Sudoeste 0 -- -- 57
2020-09-18 17:00:00 20.2 15 Sur 25 Sur 0.2 -- -- 58
2020-09-18 16:00:00 20.2 8 Sur 24 Sur 0 -- -- 53
2020-09-18 15:00:00 19.4 17 Sur 24 Sur 0 -- -- 56
2020-09-18 14:00:00 19.4 12 Sur 22 Sur 0 -- -- 57
2020-09-18 13:00:00 17.7 19 Sur 29 Sur 0 -- -- 67
2020-09-18 12:00:00 17.5 21 Sur 31 Sudeste 0 -- -- 68
2020-09-18 11:00:00 16.4 12 Sur 22 Sur 0 -- -- 83
2020-09-18 10:00:00 14.9 9 Sur 16 Sur 0 -- -- 91
2020-09-18 09:00:00 13.9 9 Sudoeste 14 Sudoeste 0 -- -- 93
2020-09-18 08:00:00 12.7 6 Sudoeste 16 Sur 0 -- -- 97
2020-09-18 07:00:00 13.1 5 Sur 8 Sur 0 -- -- 98
2020-09-18 06:00:00 12.4 2 Nordeste 6 Nordeste 0 -- -- 99
2020-09-18 05:00:00 12.6 4 Nordeste 10 Este 0 -- -- 98
2020-09-18 04:00:00 13 6 Este 10 Sudeste 0 -- -- 96
2020-09-18 03:00:00 12.6 9 Sudeste 14 Sudeste 0 -- -- 97
2020-09-18 02:00:00 12.9 12 Este 23 Sudeste 0 -- -- 96
2020-09-18 01:00:00 13 8 Este 13 Sudoeste 0.2 -- -- 98
2020-09-18 00:00:00 14 7 Oeste 49 Sur 1.8 -- -- 95
2020-09-17 23:00:00 17.3 14 Sur 27 Sur 0 -- -- 82
2020-09-17 22:00:00 18 9 Sudoeste 19 Sur 0 -- -- 80
2020-09-17 21:00:00 18.8 11 Sur 25 Sudoeste 0 -- -- 76
2020-09-17 20:00:00 19.2 5 Oeste 11 Sudoeste 0 -- -- 84
2020-09-17 19:00:00 21 4 Noroeste 17 Oeste 0 -- -- 78
2020-09-17 18:00:00 18.2 15 Sudoeste 50 Sur 2.8 -- -- 84
2020-09-17 17:00:00 24.6 13 Sudeste 27 Sudeste 0 -- -- 46
2020-09-17 16:00:00 26.1 11 Este 30 Este 0 -- -- 42
2020-09-17 15:00:00 25.2 13 Sudeste 27 Sudeste 0 -- -- 44
2020-09-17 14:00:00 24 14 Sudeste 25 Este 0 -- -- 49
2020-09-17 13:00:00 22.5 9 Sudeste 15 Sudeste 0 -- -- 55
2020-09-17 12:00:00 20.6 8 Este 15 Nordeste 0 -- -- 62
2020-09-17 11:00:00 19.3 12 Nordeste 18 Nordeste 0 -- -- 69
2020-09-17 10:00:00 17.9 12 Nordeste 17 Este 0 -- -- 75
2020-09-17 09:00:00 16.6 10 Este 19 Este 0.2 -- -- 82
2020-09-17 08:00:00 17.5 14 Este 24 Este 0 -- -- 72
2020-09-17 07:00:00 17.9 15 Este 19 Este 0 -- -- 63
2020-09-17 06:00:00 16.6 11 Nordeste 16 Nordeste 0 -- -- 65
2020-09-17 05:00:00 17.6 12 Este 16 Este 0 -- -- 62
2020-09-17 04:00:00 17.6 12 Nordeste 16 Nordeste 0 -- -- 66
2020-09-17 03:00:00 17.6 13 Nordeste 17 Nordeste 0 -- -- 66
2020-09-17 02:00:00 17.6 13 Nordeste 17 Nordeste 0 -- -- 69
2020-09-17 01:00:00 18 11 Norte 13 Norte 0 -- -- 67
2020-09-17 00:00:00 18.4 7 Noroeste 28 Sur 0 -- -- 65
2020-09-16 23:00:00 20.3 12 Este 27 Este 0 -- -- 53
2020-09-16 22:00:00 20.8 8 Norte 12 Norte 0 -- -- 51
2020-09-16 21:00:00 21.5 9 Norte 13 Norte 0 -- -- 48
2020-09-16 20:00:00 23.3 6 Nordeste 10 Este 0 -- -- 43
2020-09-16 19:00:00 25.1 8 Nordeste 21 Este 0 -- -- 37
2020-09-16 18:00:00 25.9 13 Este 27 Este 0 -- -- 34
2020-09-16 17:00:00 26.8 14 Este 25 Este 0 -- -- 35
2020-09-16 16:00:00 25.4 12 Sudeste 22 Sudeste 0 -- -- 39
2020-09-16 15:00:00 25.3 8 Este 24 Sudeste 0 -- -- 39
2020-09-16 14:00:00 25.6 11 Sur 25 Sudeste 0 -- -- 39
2020-09-16 13:00:00 24.7 12 Este 25 Sudeste 0 -- -- 41
2020-09-16 12:00:00 24.3 13 Este 24 Este 0 -- -- 44
2020-09-16 11:00:00 22.3 10 Nordeste 15 Nordeste 0 -- -- 50
2020-09-16 10:00:00 17.7 9 Nordeste 15 Este 0 -- -- 62
2020-09-16 09:00:00 13.4 8 Este 12 Este 0 -- -- 74
2020-09-16 08:00:00 10.3 6 Nordeste 9 Nordeste 0 -- -- 83
2020-09-16 07:00:00 11.6 5 Este 9 Este 0 -- -- 78
2020-09-16 06:00:00 13.4 6 Este 8 Sudeste 0 -- -- 71
2020-09-16 05:00:00 15.2 4 Este 6 Este 0 -- -- 64
2020-09-16 04:00:00 15.8 4 Sudeste 9 Nordeste 0 -- -- 61
2020-09-16 03:00:00 13.8 9 Nordeste 10 Nordeste 0 -- -- 69
2020-09-16 02:00:00 14.5 5 Nordeste 10 Nordeste 0 -- -- 64
2020-09-16 01:00:00 16.4 4 Sudoeste 6 Sudoeste 0 -- -- 58
2020-09-16 00:00:00 17.2 4 Sudoeste 13 Sudoeste 0 -- -- 55
2020-09-15 23:00:00 18.5 6 Sur 13 Sur 0 -- -- 51
2020-09-15 22:00:00 19.9 8 Sudoeste 16 Sudoeste 0 -- -- 46
2020-09-15 21:00:00 20.8 6 Sudoeste 16 Sudoeste 0 -- -- 44
2020-09-15 20:00:00 23.4 10 Sudoeste 23 Sudoeste 0 -- -- 41
2020-09-15 19:00:00 25.3 12 Sudoeste 26 Sudoeste 0 -- -- 39
2020-09-15 18:00:00 25.4 18 Sudoeste 34 Sudoeste 0 -- -- 39
2020-09-15 17:00:00 25.5 10 Oeste 33 Sudoeste 0 -- -- 40
2020-09-15 16:00:00 24.5 15 Sudoeste 30 Sudoeste 0 -- -- 42
2020-09-15 15:00:00 24.7 17 Sudoeste 32 Sudoeste 0 -- -- 45
2020-09-15 14:00:00 24 15 Sudoeste 28 Sudoeste 0 -- -- 48
2020-09-15 13:00:00 22.8 15 Sur 33 Sur 0 -- -- 54
2020-09-15 12:00:00 21.8 10 Sur 18 Sudeste 0 -- -- 63
2020-09-15 11:00:00 20.1 7 Este 12 Sudeste 0 -- -- 72
2020-09-15 10:00:00 17.7 8 Este 12 Este 0 -- -- 83
2020-09-15 09:00:00 14.3 3 Sur -- -- 0 -- -- 99
2020-09-15 08:00:00 13 3 Este 4 Este 0 -- -- 100
2020-09-15 07:00:00 13.3 0 Calma 3 Este 0 -- -- 100
2020-09-15 06:00:00 13.2 0 Calma 6 Sudoeste 0 -- -- 97
2020-09-15 05:00:00 14.5 4 Sudoeste 8 Oeste 0 -- -- 91
2020-09-15 04:00:00 15.3 6 Sudoeste 9 Nordeste 0 -- -- 88
2020-09-15 03:00:00 16.1 9 Oeste 12 Oeste 0 -- -- 85
2020-09-15 02:00:00 16.9 5 Oeste 11 Oeste 0 -- -- 81
2020-09-15 01:00:00 16.7 9 Oeste 12 Oeste 0 -- -- 80
2020-09-15 00:00:00 17.7 9 Oeste 14 Oeste 0 -- -- 74
2020-09-14 23:00:00 18 7 Oeste 12 Oeste 0 -- -- 70
2020-09-14 22:00:00 18.4 9 Oeste 12 Oeste 0 -- -- 65
2020-09-14 21:00:00 20.1 4 Oeste 11 Oeste 0 -- -- 59
2020-09-14 20:00:00 21.8 6 Noroeste 37 Sur 0 -- -- 54
2020-09-14 19:00:00 25.3 21 Sudoeste 49 Sur 0 -- -- 38
2020-09-14 18:00:00 27.4 29 Sur 46 Sur 0 -- -- 34
2020-09-14 17:00:00 28.2 26 Sur 45 Sur 0 -- -- 37
2020-09-14 16:00:00 27 21 Sur 39 Sudoeste 0 -- -- 43
2020-09-14 15:00:00 26.5 13 Sudeste 30 Sur 0 -- -- 44
2020-09-14 14:00:00 26 19 Sur 39 Sur 0 -- -- 45
2020-09-14 13:00:00 24.9 18 Sur 30 Sur 0 -- -- 48
2020-09-14 12:00:00 21.9 8 Sur 15 Sudoeste 0 -- -- 60
2020-09-14 11:00:00 20.1 7 Sur 13 Sur 0 -- -- 65
2020-09-14 10:00:00 19.5 3 Sur 6 Sur 0 -- -- 64
2020-09-14 09:00:00 17 4 Sudeste 5 Sur 0 -- -- 67
2020-09-14 08:00:00 17.5 0 Calma 12 Sudoeste 0 -- -- 60
2020-09-14 07:00:00 18 7 Sudoeste 12 Sur 0 -- -- 54
2020-09-14 06:00:00 18.5 5 Sudeste 9 Este 0 -- -- 51
2020-09-14 05:00:00 17.2 6 Este 13 Nordeste 0 -- -- 55
2020-09-14 04:00:00 20 2 Este 8 Sudoeste 0 -- -- 46
2020-09-14 03:00:00 18.9 4 Sur 27 Sudoeste 0 -- -- 49
2020-09-14 02:00:00 19.6 9 Este 13 Nordeste 0 -- -- 46
2020-09-14 01:00:00 20.6 9 Este 10 Este 0 -- -- 44
2020-09-14 00:00:00 23 3 Sudeste 6 Sur 0 -- -- 36
2020-09-13 23:00:00 22.7 4 Sudeste 8 Sur 0 -- -- 38
2020-09-13 22:00:00 23.2 5 Sur 8 Sur 0 -- -- 36
2020-09-13 21:00:00 24.7 5 Sur 12 Sudoeste 0 -- -- 33
2020-09-13 20:00:00 27.6 10 Sudoeste 21 Sudoeste 0 -- -- 29
2020-09-13 19:00:00 29.2 13 Sudoeste 30 Sudoeste 0 -- -- 27
2020-09-13 18:00:00 31.2 14 Sur 33 Sur 0 -- -- 24
2020-09-13 17:00:00 32.4 14 Sur 30 Sur 0 -- -- 23
2020-09-13 16:00:00 32.1 11 Sur 23 Sur 0 -- -- 24
2020-09-13 15:00:00 30.8 10 Oeste 19 Oeste 0 -- -- 26
2020-09-13 14:00:00 28.5 12 Sur 19 Sur 0 -- -- 28
2020-09-13 13:00:00 29.3 7 Este 16 Este 0 -- -- 26
2020-09-13 12:00:00 26.4 10 Este 19 Este 0 -- -- 30
2020-09-13 11:00:00 23.9 14 Nordeste 23 Nordeste 0 -- -- 34
2020-09-13 10:00:00 20.8 15 Nordeste 24 Nordeste 0 -- -- 40
2020-09-13 09:00:00 17.1 20 Nordeste 24 Nordeste 0 -- -- 47
2020-09-13 08:00:00 14.7 18 Nordeste 21 Nordeste 0 -- -- 54
2020-09-13 07:00:00 15.7 17 Nordeste 24 Nordeste 0 -- -- 51
2020-09-13 06:00:00 15.9 18 Nordeste 24 Nordeste 0 -- -- 51
2020-09-13 05:00:00 16.3 19 Nordeste 24 Nordeste 0 -- -- 49
2020-09-13 04:00:00 16 18 Nordeste 21 Nordeste 0 -- -- 46
2020-09-13 03:00:00 16.3 15 Nordeste 18 Nordeste 0 -- -- 45
2020-09-13 02:00:00 17.5 17 Nordeste 21 Nordeste 0 -- -- 40
2020-09-13 01:00:00 18.1 14 Nordeste 15 Este 0 -- -- 42
2020-09-13 00:00:00 19.9 15 Nordeste 18 Nordeste 0 -- -- 39
2020-09-12 23:00:00 19.8 12 Nordeste 13 Nordeste 0 -- -- 41
2020-09-12 22:00:00 21.2 10 Nordeste 13 Nordeste 0 -- -- 39
2020-09-12 21:00:00 23.2 12 Nordeste 14 Nordeste 0 -- -- 34
2020-09-12 20:00:00 26.5 10 Nordeste 19 Este 0 -- -- 30
2020-09-12 19:00:00 28.2 13 Este 20 Este 0 -- -- 27
2020-09-12 18:00:00 30.7 13 Nordeste 27 Este 0 -- -- 23
2020-09-12 17:00:00 31.3 8 Este 23 Este 0 -- -- 23
2020-09-12 16:00:00 30.2 12 Este 28 Este 0 -- -- 25
2020-09-12 15:00:00 29.4 16 Este 30 Este 0 -- -- 24
2020-09-12 14:00:00 28.7 17 Este 28 Este 0 -- -- 27
2020-09-12 13:00:00 27.5 16 Este 28 Este 0 -- -- 31
2020-09-12 12:00:00 25.5 16 Nordeste 29 Nordeste 0 -- -- 40
2020-09-12 11:00:00 21.9 21 Nordeste 28 Nordeste 0 -- -- 53
2020-09-12 10:00:00 19.7 18 Nordeste 24 Nordeste 0 -- -- 61
2020-09-12 09:00:00 16.3 17 Nordeste 23 Nordeste 0 -- -- 71
2020-09-12 08:00:00 13.8 16 Nordeste 21 Nordeste 0 -- -- 79
2020-09-12 07:00:00 14.3 17 Nordeste 21 Nordeste 0 -- -- 76
2020-09-12 06:00:00 14.4 14 Nordeste 18 Nordeste 0 -- -- 68
2020-09-12 05:00:00 14.9 16 Nordeste 20 Nordeste 0 -- -- 61
2020-09-12 04:00:00 15.8 16 Nordeste 18 Nordeste 0 -- -- 58
2020-09-12 03:00:00 15.6 13 Nordeste 18 Nordeste 0 -- -- 59
2020-09-12 02:00:00 17.3 15 Nordeste 22 Nordeste 0 -- -- 54
2020-09-12 01:00:00 18.1 10 Nordeste 11 Nordeste 0 -- -- 51
2020-09-12 00:00:00 19.3 9 Este 12 Nordeste 0 -- -- 47
2020-09-11 23:00:00 20.5 10 Este 14 Sudeste 0 -- -- 43
2020-09-11 22:00:00 21.3 13 Sudeste 15 Sudeste 0 -- -- 41
2020-09-11 21:00:00 21.9 14 Sudeste 15 Sudeste 0 -- -- 40
2020-09-11 20:00:00 25 6 Sudeste 12 Norte 0 -- -- 36
2020-09-11 19:00:00 31.1 4 Noroeste 12 Norte 0 -- -- 25
2020-09-11 18:00:00 30.7 5 Sudoeste 18 Sur 0 -- -- 26
2020-09-11 17:00:00 30 7 Nordeste 15 Norte 0 -- -- 27
2020-09-11 16:00:00 29.7 11 Nordeste 19 Nordeste 0 -- -- 28
2020-09-11 15:00:00 29.4 6 Norte 20 Este 0 -- -- 28
2020-09-11 14:00:00 27.4 10 Este 22 Este 0 -- -- 32
2020-09-11 13:00:00 26.8 10 Este 23 Nordeste 0 -- -- 35
2020-09-11 12:00:00 24.6 15 Este 28 Nordeste 0 -- -- 38
2020-09-11 11:00:00 21.8 20 Nordeste 30 Nordeste 0 -- -- 49
2020-09-11 10:00:00 18.7 22 Nordeste 28 Nordeste 0 -- -- 60
2020-09-11 09:00:00 15.6 18 Nordeste 26 Nordeste 0 -- -- 69
2020-09-11 08:00:00 13.4 18 Nordeste 21 Nordeste 0 -- -- 76
2020-09-11 07:00:00 14.3 16 Nordeste 26 Nordeste 0 -- -- 73
2020-09-11 06:00:00 14.3 19 Nordeste 25 Nordeste 0 -- -- 74
2020-09-11 05:00:00 14.7 17 Nordeste 23 Nordeste 0 -- -- 69
2020-09-11 04:00:00 15 17 Nordeste 22 Nordeste 0 -- -- 63
2020-09-11 03:00:00 15.8 15 Nordeste 18 Nordeste 0 -- -- 58
2020-09-11 02:00:00 15.9 16 Nordeste 22 Nordeste 0 -- -- 53
2020-09-11 01:00:00 17.2 8 Nordeste 11 Nordeste 0 -- -- 47
2020-09-11 00:00:00 18.6 9 Este 10 Este 0 -- -- 43
2020-09-10 23:00:00 18.7 10 Este 15 Este 0 -- -- 43
2020-09-10 22:00:00 20.8 12 Este 18 Este 0 -- -- 40
2020-09-10 21:00:00 21.8 14 Este 16 Este 0 -- -- 38
2020-09-10 20:00:00 27.6 4 Sudeste 13 Nordeste 0 -- -- 29
2020-09-10 19:00:00 29.8 9 Oeste 16 Noroeste 0 -- -- 24
2020-09-10 18:00:00 30.9 6 Norte 16 Oeste 0 -- -- 24
2020-09-10 17:00:00 30.5 7 Noroeste 19 Noroeste 0 -- -- 24
2020-09-10 16:00:00 29.7 7 Nordeste 25 Norte 0 -- -- 26
2020-09-10 15:00:00 27.5 11 Este 16 Sudeste 0 -- -- 31
2020-09-10 14:00:00 27 7 Este 21 Nordeste 0 -- -- 33
2020-09-10 13:00:00 25.5 9 Nordeste 21 Nordeste 0 -- -- 38
2020-09-10 12:00:00 23.7 12 Nordeste 21 Este 0 -- -- 42
2020-09-10 11:00:00 21.5 16 Nordeste 22 Nordeste 0 -- -- 49
2020-09-10 10:00:00 18.7 15 Nordeste 21 Nordeste 0 -- -- 56
2020-09-10 09:00:00 15.1 14 Nordeste 21 Nordeste 0 -- -- 69
2020-09-10 08:00:00 12.3 13 Nordeste 22 Nordeste 0 -- -- 79
2020-09-10 07:00:00 13.1 17 Nordeste 22 Nordeste 0 -- -- 77
2020-09-10 06:00:00 13 14 Nordeste 22 Nordeste 0 -- -- 76
2020-09-10 05:00:00 12.8 15 Nordeste 20 Nordeste 0 -- -- 74
2020-09-10 04:00:00 13.9 15 Nordeste 20 Nordeste 0 -- -- 67
2020-09-10 03:00:00 14 15 Nordeste 19 Nordeste 0 -- -- 62
2020-09-10 02:00:00 14.6 15 Nordeste 26 Nordeste 0 -- -- 57
2020-09-10 01:00:00 17.7 3 Noroeste 6 Nordeste 0 -- -- 39
2020-09-10 00:00:00 17.9 4 Nordeste 8 Este 0 -- -- 38
2020-09-09 23:00:00 18.3 9 Nordeste 11 Sudeste 0 -- -- 38
2020-09-09 22:00:00 20.1 9 Sudeste 12 Sudeste 0 -- -- 34
2020-09-09 21:00:00 21.2 8 Este 15 Sudeste 0 -- -- 34
2020-09-09 20:00:00 27.9 3 Oeste 13 Oeste 0 -- -- 22
2020-09-09 19:00:00 31.5 3 Norte 16 Sur 0 -- -- 19
2020-09-09 18:00:00 29.3 7 Este 11 Este 0 -- -- 22
2020-09-09 17:00:00 29.7 6 Norte 18 Este 0 -- -- 22
2020-09-09 16:00:00 29.6 4 Nordeste 14 Nordeste 0 -- -- 22
2020-09-09 15:00:00 27.8 6 Sudoeste 17 Sudeste 0 -- -- 23
2020-09-09 14:00:00 26.3 6 Sur 19 Este 0 -- -- 28
2020-09-09 13:00:00 24.5 11 Este 21 Este 0 -- -- 32
2020-09-09 12:00:00 24.2 7 Este 18 Nordeste 0 -- -- 33
2020-09-09 11:00:00 21.6 10 Nordeste 24 Nordeste 0 -- -- 39
2020-09-09 10:00:00 17.7 16 Nordeste 22 Nordeste 0 -- -- 48
2020-09-09 09:00:00 14.2 16 Nordeste 26 Nordeste 0 -- -- 58
2020-09-09 08:00:00 11.9 18 Nordeste 22 Nordeste 0 -- -- 65
2020-09-09 07:00:00 11.8 18 Nordeste 24 Nordeste 0 -- -- 66
2020-09-09 06:00:00 12.9 19 Nordeste 24 Nordeste 0 -- -- 62
2020-09-09 05:00:00 12.4 18 Nordeste 21 Nordeste 0 -- -- 60
2020-09-09 04:00:00 12.6 16 Nordeste 18 Norte 0 -- -- 57
2020-09-09 03:00:00 13 15 Nordeste 17 Nordeste 0 -- -- 55
2020-09-09 02:00:00 13.7 14 Nordeste 17 Nordeste 0 -- -- 52
2020-09-09 01:00:00 13.8 13 Nordeste 15 Norte 0 -- -- 52
2020-09-09 00:00:00 15 12 Norte 21 Norte 0 -- -- 49
2020-09-08 23:00:00 15.8 9 Norte 15 Norte 0 -- -- 48
2020-09-08 22:00:00 17.2 13 Nordeste 15 Nordeste 0 -- -- 45
2020-09-08 21:00:00 19.1 9 Nordeste 13 Nordeste 0 -- -- 39
2020-09-08 20:00:00 23.4 8 Nordeste 21 Nordeste 0 -- -- 30
2020-09-08 19:00:00 25.5 13 Nordeste 26 Nordeste 0 -- -- 27
2020-09-08 18:00:00 25.4 19 Nordeste 31 Este 0 -- -- 25
2020-09-08 17:00:00 25.2 19 Este 35 Este 0 -- -- 27
2020-09-08 16:00:00 24 24 Este 36 Nordeste 0 -- -- 30
2020-09-08 15:00:00 23.2 19 Nordeste 37 Este 0 -- -- 31
2020-09-08 14:00:00 21.4 22 Este 35 Nordeste 0 -- -- 37
2020-09-08 13:00:00 19.3 24 Nordeste 36 Nordeste 0 -- -- 44
2020-09-08 12:00:00 17.4 24 Nordeste 42 Nordeste 0 -- -- 51
2020-09-08 11:00:00 15.2 24 Nordeste 42 Nordeste 0 -- -- 61
2020-09-08 10:00:00 13.3 26 Nordeste 39 Nordeste 0 -- -- 69
2020-09-08 09:00:00 11.5 23 Nordeste 36 Nordeste 0 -- -- 75
2020-09-08 08:00:00 9.5 18 Nordeste 33 Nordeste 0 -- -- 81
2020-09-08 07:00:00 9.6 23 Nordeste 33 Nordeste 0 -- -- 79
2020-09-08 06:00:00 9.8 23 Nordeste 35 Nordeste 0 -- -- 76
2020-09-08 05:00:00 9.5 22 Nordeste 30 Nordeste 0 -- -- 74
2020-09-08 04:00:00 9.5 14 Nordeste 22 Este 0 -- -- 70
2020-09-08 03:00:00 10.4 14 Nordeste 24 Nordeste 0 -- -- 66
2020-09-08 02:00:00 11.5 20 Nordeste 38 Este 0 -- -- 63
2020-09-08 01:00:00 12.8 30 Nordeste 44 Nordeste 0 -- -- 65
2020-09-08 00:00:00 14.2 30 Nordeste 44 Nordeste 0 -- -- 62
2020-09-07 23:00:00 15.4 23 Nordeste 36 Nordeste 0 -- -- 56
2020-09-07 22:00:00 16.6 22 Nordeste 32 Este 0 -- -- 50
2020-09-07 21:00:00 17.6 15 Este 33 Este 0 -- -- 47
2020-09-07 20:00:00 20.7 19 Nordeste 35 Nordeste 0 -- -- 37
2020-09-07 19:00:00 22.8 22 Nordeste 36 Nordeste 0 -- -- 31
2020-09-07 18:00:00 23.3 25 Este 39 Este 0 -- -- 31
2020-09-07 17:00:00 23.8 22 Nordeste 37 Nordeste 0 -- -- 32
2020-09-07 16:00:00 22.3 21 Este 40 Este 0 -- -- 37
2020-09-07 15:00:00 21.8 23 Este 43 Nordeste 0 -- -- 40
2020-09-07 14:00:00 20.7 27 Este 41 Este 0 -- -- 41
2020-09-07 13:00:00 18.9 24 Este 41 Este 0 -- -- 47
2020-09-07 12:00:00 17.6 28 Nordeste 44 Este 0 -- -- 53
2020-09-07 11:00:00 15.5 27 Este 42 Este 0 -- -- 62
2020-09-07 10:00:00 13.9 24 Este 37 Nordeste 0 -- -- 72
2020-09-07 09:00:00 10.4 13 Nordeste 20 Nordeste 0 -- -- 86
2020-09-07 08:00:00 9 14 Nordeste 22 Nordeste 0 -- -- 90
2020-09-07 07:00:00 9.1 16 Nordeste 24 Nordeste 0 -- -- 89
2020-09-07 06:00:00 9.8 17 Nordeste 26 Nordeste 0 -- -- 85
2020-09-07 05:00:00 10.5 19 Nordeste 29 Nordeste 0 -- -- 81
2020-09-07 04:00:00 11.3 22 Nordeste 35 Este 0 -- -- 78
2020-09-07 03:00:00 11.7 22 Nordeste 36 Este 0 -- -- 76
2020-09-07 02:00:00 12.4 27 Este 39 Nordeste 0 -- -- 72
2020-09-07 01:00:00 13.1 26 Este 37 Este 0 -- -- 68
2020-09-07 00:00:00 14.2 28 Nordeste 44 Este 0 -- -- 62
2020-09-06 23:00:00 16 31 Nordeste 46 Nordeste 0 -- -- 56
2020-09-06 22:00:00 19.8 27 Este 40 Este 0 -- -- 47
2020-09-06 21:00:00 22.4 14 Este 20 Sudeste 0 -- -- 47
2020-09-06 20:00:00 25.8 14 Este 19 Este 0 -- -- 40
2020-09-06 19:00:00 28.7 8 Este 15 Este 0 -- -- 35
2020-09-06 18:00:00 29 10 Nordeste 18 Este 0 -- -- 35
2020-09-06 17:00:00 28.9 9 Este 20 Nordeste 0 -- -- 36
2020-09-06 16:00:00 28.3 10 Nordeste 21 Nordeste 0 -- -- 38
2020-09-06 15:00:00 26.9 10 Nordeste 28 Este 0 -- -- 40
2020-09-06 14:00:00 25.3 13 Nordeste 26 Nordeste 0 -- -- 44
2020-09-06 13:00:00 23.1 18 Nordeste 27 Nordeste 0 -- -- 50
2020-09-06 12:00:00 21.4 18 Nordeste 29 Nordeste 0 -- -- 54
2020-09-06 11:00:00 19 21 Nordeste 36 Nordeste 0 -- -- 63
2020-09-06 10:00:00 16.8 25 Nordeste 38 Nordeste 0 -- -- 72
2020-09-06 09:00:00 14.5 25 Nordeste 34 Nordeste 0 -- -- 81
2020-09-06 08:00:00 12.9 23 Nordeste 35 Nordeste 0 -- -- 87
2020-09-06 07:00:00 13.1 26 Nordeste 38 Nordeste 0 -- -- 88
2020-09-06 06:00:00 13 21 Nordeste 30 Nordeste 0 -- -- 88
2020-09-06 05:00:00 13.8 23 Nordeste 28 Nordeste 0 -- -- 85
2020-09-06 04:00:00 14.4 18 Nordeste 36 Nordeste 0 -- -- 82
2020-09-06 03:00:00 14.8 23 Nordeste 42 Nordeste 0 -- -- 82
2020-09-06 02:00:00 15.1 28 Nordeste 42 Este 0 -- -- 80
2020-09-06 01:00:00 16.6 24 Nordeste 36 Nordeste 0 -- -- 74
2020-09-06 00:00:00 18 24 Nordeste 36 Nordeste 0 -- -- 67
2020-09-05 23:00:00 19.7 22 Nordeste 34 Nordeste 0 -- -- 63
2020-09-05 22:00:00 22.9 17 Nordeste 28 Este 0 -- -- 50
2020-09-05 21:00:00 24 11 Este 13 Este 0 -- -- 38
2020-09-05 20:00:00 27.6 8 Este 14 Este 0 -- -- 33
2020-09-05 19:00:00 29.5 3 Sur 10 Noroeste 0 -- -- 27
2020-09-05 18:00:00 32.9 4 Norte 19 Norte 0 -- -- 23
2020-09-05 17:00:00 32.6 4 Norte 21 Este 0 -- -- 24
2020-09-05 16:00:00 32 8 Este 20 Nordeste 0 -- -- 25
2020-09-05 15:00:00 32.1 5 Norte 21 Nordeste 0 -- -- 29
2020-09-05 14:00:00 29.6 11 Nordeste 24 Este 0 -- -- 33
2020-09-05 13:00:00 27.7 13 Nordeste 25 Este 0 -- -- 36
2020-09-05 12:00:00 26.1 15 Nordeste 27 Nordeste 0 -- -- 39
2020-09-05 11:00:00 23.9 21 Nordeste 30 Nordeste 0 -- -- 42
2020-09-05 10:00:00 22 15 Nordeste 23 Nordeste 0 -- -- 48
2020-09-05 09:00:00 19.8 8 Nordeste 13 Nordeste 0 -- -- 57
2020-09-05 08:00:00 15.1 9 Nordeste 15 Nordeste 0 -- -- 69
2020-09-05 07:00:00 16.8 13 Nordeste 17 Nordeste 0 -- -- 62
2020-09-05 06:00:00 17.1 14 Nordeste 15 Nordeste 0 -- -- 59
2020-09-05 05:00:00 17.6 11 Nordeste 14 Nordeste 0 -- -- 52
2020-09-05 04:00:00 18.9 3 Este 12 Nordeste 0 -- -- 47
2020-09-05 03:00:00 18 10 Nordeste 13 Este 0 -- -- 51
2020-09-05 02:00:00 18.4 4 Noroeste 9 Noroeste 0 -- -- 51
2020-09-05 01:00:00 20 5 Noroeste 12 Noroeste 0 -- -- 46
2020-09-05 00:00:00 20.7 10 Noroeste 17 Noroeste 0 -- -- 45
2020-09-04 23:00:00 21.1 9 Noroeste 19 Oeste 0 -- -- 41
2020-09-04 22:00:00 24 6 Noroeste 8 Noroeste 0 -- -- 31
2020-09-04 21:00:00 24.6 7 Noroeste 15 Noroeste 0 -- -- 31
2020-09-04 20:00:00 29.1 13 Oeste 23 Noroeste 0 -- -- 23
2020-09-04 19:00:00 31.6 13 Noroeste 33 Sudoeste 0 -- -- 21
2020-09-04 18:00:00 32.2 13 Sudoeste 29 Oeste 0 -- -- 20
2020-09-04 17:00:00 31.5 14 Sudoeste 31 Oeste 0 -- -- 20
2020-09-04 16:00:00 31.8 15 Oeste 30 Oeste 0 -- -- 21
2020-09-04 15:00:00 31 16 Sudoeste 26 Sur 0 -- -- 22
2020-09-04 14:00:00 30.1 13 Sur 24 Sur 0 -- -- 23
2020-09-04 13:00:00 28.6 12 Oeste 21 Sudoeste 0 -- -- 26
2020-09-04 12:00:00 27.6 6 Este 17 Nordeste 0 -- -- 32
2020-09-04 11:00:00 24.2 12 Este 17 Este 0 -- -- 38
2020-09-04 10:00:00 21.2 10 Este 13 Este 0 -- -- 44
2020-09-04 09:00:00 17.3 8 Nordeste 14 Nordeste 0 -- -- 51
2020-09-04 08:00:00 14.7 12 Nordeste 14 Nordeste 0 -- -- 55
2020-09-04 07:00:00 15.3 14 Nordeste 16 Nordeste 0 -- -- 52
2020-09-04 06:00:00 15.5 14 Nordeste 16 Nordeste 0 -- -- 49
2020-09-04 05:00:00 14.8 12 Nordeste 15 Nordeste 0 -- -- 50
2020-09-04 04:00:00 15.8 12 Nordeste 12 Nordeste 0 -- -- 46
2020-09-04 03:00:00 15.7 6 Norte 8 Norte 0 -- -- 46
2020-09-04 02:00:00 16.7 5 Nordeste 12 Nordeste 0 -- -- 42
2020-09-04 01:00:00 18.4 12 Nordeste 12 Nordeste 0 -- -- 38
2020-09-04 00:00:00 19.2 6 Nordeste 8 Nordeste 0 -- -- 33
2020-09-03 23:00:00 23.2 3 Este 8 Sudeste 0 -- -- 24
2020-09-03 22:00:00 23.1 4 Sudoeste 14 Este 0 -- -- 28
2020-09-03 21:00:00 23.6 11 Este 14 Este 0 -- -- 30
2020-09-03 20:00:00 28.3 6 Sudeste 19 Sudeste 0 -- -- 26
2020-09-03 19:00:00 30.3 9 Este 20 Este 0 -- -- 23
2020-09-03 18:00:00 30.3 9 Sudeste 27 Este 0 -- -- 23
2020-09-03 17:00:00 30.3 10 Este 18 Nordeste 0 -- -- 23
2020-09-03 16:00:00 29.9 8 Nordeste 19 Sudeste 0 -- -- 25
2020-09-03 15:00:00 28.6 12 Este 19 Este 0 -- -- 28
2020-09-03 14:00:00 27.1 8 Sudeste 20 Sur 0 -- -- 30
2020-09-03 13:00:00 26.1 9 Sur 17 Sudeste 0 -- -- 33
2020-09-03 12:00:00 24.9 8 Este 19 Este 0 -- -- 37
2020-09-03 11:00:00 22.4 10 Este 17 Este 0 -- -- 40
2020-09-03 10:00:00 19.6 7 Nordeste 12 Nordeste 0 -- -- 51
2020-09-03 09:00:00 15.6 8 Nordeste 10 Nordeste 0 -- -- 65
2020-09-03 08:00:00 10.1 7 Norte 12 Nordeste 0 -- -- 84
2020-09-03 07:00:00 10.2 6 Norte 15 Nordeste 0 -- -- 81
2020-09-03 06:00:00 11.7 10 Nordeste 16 Nordeste 0 -- -- 73
2020-09-03 05:00:00 12.8 13 Nordeste 16 Nordeste 0 -- -- 68
2020-09-03 04:00:00 13.4 14 Nordeste 17 Nordeste 0 -- -- 63
2020-09-03 03:00:00 13.8 13 Nordeste 16 Nordeste 0 -- -- 61
2020-09-03 02:00:00 14.3 10 Nordeste 12 Nordeste 0 -- -- 59
2020-09-03 01:00:00 15.4 9 Nordeste 10 Nordeste 0 -- -- 56
2020-09-03 00:00:00 16.8 9 Nordeste 12 Nordeste 0 -- -- 51
2020-09-02 23:00:00 17.8 10 Este 14 Este 0 -- -- 47
2020-09-02 22:00:00 19.4 11 Este 15 Este 0 -- -- 42
2020-09-02 21:00:00 22.7 2 Sudeste 5 Sudeste 0 -- -- 34
2020-09-02 20:00:00 27.3 3 Noroeste 13 Noroeste 0 -- -- 26
2020-09-02 19:00:00 28 8 Nordeste 13 Nordeste 0 -- -- 25
2020-09-02 18:00:00 28.6 9 Noroeste 17 Norte 0 -- -- 24
2020-09-02 17:00:00 28 7 Sudeste 28 Sudeste 0 -- -- 26
2020-09-02 16:00:00 27.6 6 Noroeste 16 Este 0 -- -- 29
2020-09-02 15:00:00 25.2 8 Sudeste 21 Este 0 -- -- 33
2020-09-02 14:00:00 23.9 12 Nordeste 25 Nordeste 0 -- -- 40
2020-09-02 13:00:00 21.8 17 Nordeste 31 Este 0 -- -- 47
2020-09-02 12:00:00 20.1 21 Nordeste 36 Nordeste 0 -- -- 50
2020-09-02 11:00:00 17.7 26 Nordeste 36 Nordeste 0 -- -- 59
2020-09-02 10:00:00 15.7 28 Nordeste 36 Nordeste 0 -- -- 66
2020-09-02 09:00:00 13.6 21 Nordeste 30 Nordeste 0 -- -- 74
2020-09-02 08:00:00 11 16 Nordeste 25 Nordeste 0 -- -- 83
2020-09-02 07:00:00 11.4 17 Nordeste 30 Nordeste 0 -- -- 80
2020-09-02 06:00:00 12.3 21 Nordeste 35 Nordeste 0 -- -- 76
2020-09-02 05:00:00 12.7 23 Nordeste 38 Nordeste 0 -- -- 74
2020-09-02 04:00:00 13.2 26 Nordeste 37 Nordeste 0 -- -- 73
2020-09-02 03:00:00 13.6 25 Nordeste 36 Nordeste 0 -- -- 74
2020-09-02 02:00:00 14.2 19 Nordeste 34 Este 0 -- -- 73
2020-09-02 01:00:00 15.6 22 Nordeste 42 Nordeste 0 -- -- 64
2020-09-02 00:00:00 16.4 21 Nordeste 33 Norte 0 -- -- 58
2020-09-01 23:00:00 16 6 Norte 10 Nordeste 0 -- -- 49
2020-09-01 22:00:00 19.3 8 Nordeste 12 Este 0 -- -- 38
2020-09-01 21:00:00 21.8 10 Este 14 Este 0 -- -- 32
2020-09-01 20:00:00 26 7 Noroeste 12 Noroeste 0 -- -- 28
2020-09-01 19:00:00 27.1 10 Noroeste 18 Noroeste 0 -- -- 26
2020-09-01 18:00:00 28.2 5 Norte 23 Noroeste 0 -- -- 25
2020-09-01 17:00:00 26.9 7 Noroeste 21 Oeste 0 -- -- 28
2020-09-01 16:00:00 27 9 Noroeste 23 Noroeste 0 -- -- 28
2020-09-01 15:00:00 25.7 10 Norte 23 Nordeste 0 -- -- 25
2020-09-01 14:00:00 25.2 10 Oeste 15 Sudoeste 0 -- -- 24
2020-09-01 13:00:00 24.4 4 Norte 13 Norte 0 -- -- 30
2020-09-01 12:00:00 22 5 Este 12 Este 0 -- -- 36
2020-09-01 11:00:00 20.7 7 Nordeste 12 Nordeste 0 -- -- 38
2020-09-01 10:00:00 16.8 8 Nordeste 14 Nordeste 0 -- -- 45
2020-09-01 09:00:00 13.2 8 Nordeste 12 Nordeste 0 -- -- 59
2020-09-01 08:00:00 11.3 9 Este 10 Este 0 -- -- 62
2020-09-01 07:00:00 12.3 7 Nordeste 10 Nordeste 0 -- -- 59
2020-09-01 06:00:00 12.8 6 Sudeste 13 Este 0 -- -- 54
2020-09-01 05:00:00 12.9 3 Noroeste 8 Sudeste 0 -- -- 58
2020-09-01 04:00:00 14.1 0 Calma 10 Este 0 -- -- 50
2020-09-01 03:00:00 14.3 8 Nordeste 10 Este 0 -- -- 51
2020-09-01 02:00:00 15 7 Este 12 Nordeste 0 -- -- 47
2020-09-01 01:00:00 14.1 5 Norte 9 Noroeste 0 -- -- 50
2020-09-01 00:00:00 16.8 0 Calma 4 Sudoeste 0 -- -- 38
2020-08-31 23:00:00 17.5 4 Sudoeste 6 Sudoeste 0 -- -- 37
2020-08-31 22:00:00 17.4 2 Sudoeste 4 Sur 0 -- -- 37
2020-08-31 21:00:00 18.9 3 Sudoeste 12 Oeste 0 -- -- 35
2020-08-31 20:00:00 21 8 Oeste 17 Oeste 0 -- -- 30
2020-08-31 19:00:00 23 13 Oeste 24 Sudoeste 0 -- -- 22
2020-08-31 18:00:00 23.7 11 Oeste 23 Sudoeste 0 -- -- 24
2020-08-31 17:00:00 24.1 10 Oeste 23 Oeste 0 -- -- 23
2020-08-31 16:00:00 23.3 7 Oeste 22 Oeste 0 -- -- 26
2020-08-31 15:00:00 22 8 Oeste 25 Oeste 0 -- -- 28
2020-08-31 14:00:00 20.9 10 Sudoeste 20 Sur 0 -- -- 31
2020-08-31 13:00:00 20.3 7 Sudeste 16 Sudeste 0 -- -- 35
2020-08-31 12:00:00 17.3 5 Este 20 Este 0 -- -- 47
2020-08-31 11:00:00 15.4 11 Este 21 Nordeste 0 -- -- 56
2020-08-31 10:00:00 12.8 13 Nordeste 21 Nordeste 0 -- -- 66
2020-08-31 09:00:00 9.2 13 Nordeste 21 Nordeste 0 -- -- 80
2020-08-31 08:00:00 6.4 14 Nordeste 21 Nordeste 0 -- -- 91
2020-08-31 07:00:00 6.6 15 Nordeste 22 Nordeste 0 -- -- 90
2020-08-31 06:00:00 6.9 15 Nordeste 21 Nordeste 0 -- -- 87
2020-08-31 05:00:00 7.1 15 Nordeste 19 Nordeste 0 -- -- 87
2020-08-31 04:00:00 7.6 15 Nordeste 20 Nordeste 0 -- -- 84
2020-08-31 03:00:00 8.4 14 Nordeste 17 Nordeste 0 -- -- 80
2020-08-31 02:00:00 8.6 13 Nordeste 18 Nordeste 0 -- -- 73
2020-08-31 01:00:00 8.7 13 Nordeste 26 Nordeste 0 -- -- 63
2020-08-31 00:00:00 11.3 7 Este 10 Este 0 -- -- 51
2020-08-30 23:00:00 12.3 8 Este 11 Este 0 -- -- 47
2020-08-30 22:00:00 12.5 9 Este 12 Este 0 -- -- 48
2020-08-30 21:00:00 14.9 12 Este 19 Este 0 -- -- 42
2020-08-30 20:00:00 18.6 18 Este 25 Este 0 -- -- 33
2020-08-30 19:00:00 20.7 17 Nordeste 26 Nordeste 0 -- -- 30
2020-08-30 18:00:00 20.6 5 Sudeste 24 Norte 0 -- -- 31
2020-08-30 17:00:00 20.8 9 Nordeste 19 Norte 0 -- -- 31
2020-08-30 16:00:00 18.3 13 Nordeste 23 Este 0 -- -- 37
2020-08-30 15:00:00 19.1 9 Este 19 Este 0 -- -- 36
2020-08-30 14:00:00 17.3 8 Norte 25 Este 0 -- -- 42
2020-08-30 13:00:00 17.3 8 Nordeste 23 Nordeste 0 -- -- 43
2020-08-30 12:00:00 17.1 15 Norte 31 Nordeste 0 -- -- 43
2020-08-30 11:00:00 16 16 Nordeste 24 Norte 0 -- -- 49
2020-08-30 10:00:00 14.3 7 Norte 10 Norte 0 -- -- 57
2020-08-30 09:00:00 11 2 Norte 10 Este 0 -- -- 71
2020-08-30 08:00:00 6.1 9 Este 12 Este 0 -- -- 89
2020-08-30 07:00:00 6.7 9 Este 14 Este 0 -- -- 87
2020-08-30 06:00:00 7.5 9 Este 13 Este 0 -- -- 82
2020-08-30 05:00:00 7.8 6 Este 13 Este 0 -- -- 78
2020-08-30 04:00:00 7.7 10 Nordeste 13 Nordeste 0 -- -- 78
2020-08-30 03:00:00 7.6 8 Este 15 Nordeste 0 -- -- 79
2020-08-30 02:00:00 8.2 5 Este 15 Nordeste 0 -- -- 73
2020-08-30 01:00:00 9.7 3 Este 19 Nordeste 0 -- -- 69
2020-08-30 00:00:00 11.4 14 Nordeste 22 Nordeste 0 -- -- 64
2020-08-29 23:00:00 12.1 13 Nordeste 26 Nordeste 0 -- -- 60
2020-08-29 22:00:00 13.3 15 Nordeste 30 Norte 0 -- -- 57
2020-08-29 21:00:00 15.4 19 Nordeste 28 Norte 0 -- -- 52
2020-08-29 20:00:00 17.1 21 Norte 35 Norte 0 -- -- 46
2020-08-29 19:00:00 21.3 20 Norte 34 Norte 0 -- -- 38
2020-08-29 18:00:00 21.7 22 Noroeste 37 Noroeste 0 -- -- 37
2020-08-29 17:00:00 21.6 23 Noroeste 34 Noroeste 0 -- -- 37
2020-08-29 16:00:00 21 17 Noroeste 30 Noroeste 0 -- -- 38
2020-08-29 15:00:00 20.6 17 Norte 36 Norte 0 -- -- 38
2020-08-29 14:00:00 22 16 Norte 32 Noroeste 0 -- -- 36
2020-08-29 13:00:00 18.5 20 Norte 33 Norte 0 -- -- 44
2020-08-29 12:00:00 17 19 Noroeste 35 Norte 0 -- -- 47
2020-08-29 11:00:00 17 17 Noroeste 30 Noroeste 0 -- -- 48
2020-08-29 10:00:00 15.3 15 Noroeste 22 Noroeste 0 -- -- 55
2020-08-29 09:00:00 11.4 4 Noroeste 9 Oeste 0 -- -- 72
2020-08-29 08:00:00 7.2 2 Oeste 6 Sudoeste 0 -- -- 90
2020-08-29 07:00:00 6.5 3 Sudoeste 8 Noroeste 0 -- -- 88
2020-08-29 06:00:00 6.9 2 Oeste 7 Oeste 0 -- -- 84
2020-08-29 05:00:00 6.8 2 Sudoeste 6 Oeste 0 -- -- 87
2020-08-29 04:00:00 7.3 0 Calma 9 Oeste 0 -- -- 84
2020-08-29 03:00:00 8.6 3 Oeste 5 Oeste 0 -- -- 78
2020-08-29 02:00:00 9.3 4 Sudoeste 10 Noroeste 0 -- -- 69
2020-08-29 01:00:00 9.4 7 Noroeste 19 Oeste 0 -- -- 69
2020-08-29 00:00:00 11.6 10 Oeste 18 Noroeste 0 -- -- 59
2020-08-28 23:00:00 12.8 16 Noroeste 40 Noroeste 0 -- -- 59
2020-08-28 22:00:00 14.7 27 Noroeste 40 Noroeste 0 -- -- 52
2020-08-28 21:00:00 16.6 16 Oeste 37 Oeste 0 -- -- 47
2020-08-28 20:00:00 19.1 21 Noroeste 42 Oeste 0 -- -- 40
2020-08-28 19:00:00 21.2 21 Oeste 42 Oeste 0 -- -- 39
2020-08-28 18:00:00 22 26 Oeste 43 Oeste 0 -- -- 37
2020-08-28 17:00:00 22.7 28 Oeste 44 Oeste 0 -- -- 35
2020-08-28 16:00:00 22.5 26 Oeste 42 Sudoeste 0 -- -- 31
2020-08-28 15:00:00 23.6 18 Oeste 38 Oeste 0 -- -- 28
2020-08-28 14:00:00 22.2 15 Sudoeste 28 Sudoeste 0 -- -- 33
2020-08-28 13:00:00 21.5 16 Sudoeste 27 Oeste 0 -- -- 36
2020-08-28 12:00:00 20.4 17 Oeste 30 Oeste 0 -- -- 43
2020-08-28 11:00:00 19 17 Oeste 32 Oeste 0 -- -- 48
2020-08-28 10:00:00 17.8 14 Oeste 26 Oeste 0 -- -- 72
2020-08-28 09:00:00 17.2 4 Sur 14 Sudoeste 0 -- -- 78
2020-08-28 08:00:00 14.5 9 Sudoeste 19 Sudoeste 0 -- -- 88
2020-08-28 07:00:00 14.2 4 Sur 13 Sur 0 -- -- 94
2020-08-28 06:00:00 15.4 8 Sur 19 Sudoeste 0 -- -- 89
2020-08-28 05:00:00 16.7 5 Sur 13 Oeste 0 -- -- 81
2020-08-28 04:00:00 17.4 4 Sur 19 Oeste 0 -- -- 77
2020-08-28 03:00:00 18 4 Sudoeste 20 Sudoeste 0 -- -- 75
2020-08-28 02:00:00 18.9 12 Sudoeste 27 Oeste 0 -- -- 70
2020-08-28 01:00:00 19.4 12 Sudoeste 29 Oeste 0 -- -- 66
2020-08-28 00:00:00 20.5 11 Oeste 21 Sudoeste 0 -- -- 62
2020-08-27 23:00:00 22.2 12 Oeste 28 Sudoeste 0 -- -- 61
2020-08-27 22:00:00 23.4 12 Oeste 24 Oeste 0 -- -- 59
2020-08-27 21:00:00 24.8 15 Oeste 33 Oeste 0 -- -- 54
2020-08-27 20:00:00 28 17 Oeste 32 Oeste 0 -- -- 44
2020-08-27 19:00:00 30.4 20 Noroeste 35 Oeste 0 -- -- 36
2020-08-27 18:00:00 31.7 15 Oeste 31 Oeste 0 -- -- 32
2020-08-27 17:00:00 31.9 13 Oeste 30 Sudoeste 0 -- -- 31
2020-08-27 16:00:00 31.2 12 Oeste 34 Sudoeste 0 -- -- 27
2020-08-27 15:00:00 29.9 14 Sudoeste 25 Oeste 0 -- -- 30
2020-08-27 14:00:00 29.7 10 Oeste 21 Oeste 0 -- -- 26
2020-08-27 13:00:00 28.2 6 Sudoeste 15 Sudoeste 0 -- -- 48
2020-08-27 12:00:00 26.7 7 Oeste 13 Sur 0 -- -- 55
2020-08-27 11:00:00 25 4 Sur 14 Sudeste 0 -- -- 64
2020-08-27 10:00:00 22.1 4 Sur 11 Sur 0 -- -- 75
2020-08-27 09:00:00 19.7 7 Sur 11 Sur 0 -- -- 83
2020-08-27 08:00:00 16.5 7 Sudeste 9 Sur 0 -- -- 91
2020-08-27 07:00:00 16.7 4 Sur 9 Sudeste 0 -- -- 85
2020-08-27 06:00:00 16.3 9 Este 14 Nordeste 0 -- -- 85
2020-08-27 05:00:00 18 -- -- -- -- 0 -- -- 78
2020-08-27 04:00:00 18.7 6 Oeste 8 Oeste 0 -- -- 76
2020-08-27 03:00:00 19.2 6 Oeste 12 Oeste 0 -- -- 72
2020-08-27 02:00:00 20.3 8 Sudoeste 10 Oeste 0 -- -- 68
2020-08-27 01:00:00 20.8 4 Noroeste 8 Norte 0 -- -- 66
2020-08-27 00:00:00 20.2 6 Norte 9 Norte 0 -- -- 67
2020-08-26 23:00:00 22.7 5 Noroeste 9 Oeste 0 -- -- 56
2020-08-26 22:00:00 24.1 7 Oeste 12 Oeste 0 -- -- 50
2020-08-26 21:00:00 27 8 Oeste 19 Oeste 0 -- -- 41
2020-08-26 20:00:00 29.5 12 Oeste 24 Oeste 0 -- -- 38
2020-08-26 19:00:00 30.9 15 Oeste 29 Oeste 0 -- -- 37
2020-08-26 18:00:00 31.6 13 Oeste 34 Sudoeste 0 -- -- 34
2020-08-26 17:00:00 31.6 14 Oeste 26 Sudoeste 0 -- -- 28
2020-08-26 16:00:00 31.1 13 Sudoeste 25 Oeste 0 -- -- 23
2020-08-26 15:00:00 30.4 9 Sudoeste 23 Sudoeste 0 -- -- 26
2020-08-26 14:00:00 29.8 8 Oeste 19 Sudoeste 0 -- -- 30
2020-08-26 13:00:00 28.9 6 Oeste 15 Sudoeste 0 -- -- 35
2020-08-26 12:00:00 27.8 4 Este 15 Este 0 -- -- 41
2020-08-26 11:00:00 24.2 8 Nordeste 13 Este 0 -- -- 53
2020-08-26 10:00:00 21.2 8 Nordeste 10 Nordeste 0 -- -- 62
2020-08-26 09:00:00 18.2 4 Nordeste 8 Nordeste 0 -- -- 72
2020-08-26 08:00:00 14.3 4 Nordeste 8 Este 0 -- -- 83
2020-08-26 07:00:00 14.3 7 Este 10 Nordeste 0 -- -- 84
2020-08-26 06:00:00 15.7 10 Nordeste 12 Este 0 -- -- 78
2020-08-26 05:00:00 16.9 8 Este 13 Este 0 -- -- 71
2020-08-26 04:00:00 17.4 2 Sudeste 14 Este 0 -- -- 64
2020-08-26 03:00:00 18.5 0 Calma 6 Este 0 -- -- 59
2020-08-26 02:00:00 19 2 Oeste 5 Noroeste 0 -- -- 58
2020-08-26 01:00:00 18.8 0 Calma 10 Norte 0 -- -- 59
2020-08-26 00:00:00 20.1 10 Norte 17 Norte 0 -- -- 56
2020-08-25 23:00:00 20.6 9 Noroeste 14 Noroeste 0 -- -- 58
2020-08-25 22:00:00 22.2 9 Noroeste 15 Oeste 0 -- -- 52
2020-08-25 21:00:00 26.2 12 Oeste 21 Oeste 0 -- -- 40
2020-08-25 20:00:00 28.5 18 Oeste 27 Oeste 0 -- -- 34
2020-08-25 19:00:00 30 18 Oeste 31 Noroeste 0 -- -- 33
2020-08-25 18:00:00 30.9 15 Oeste 31 Oeste 0 -- -- 25
2020-08-25 17:00:00 31.2 16 Sudoeste 33 Sudoeste 0 -- -- 15
2020-08-25 16:00:00 30.4 17 Oeste 31 Oeste 0 -- -- 12
2020-08-25 15:00:00 30.1 17 Sudoeste 33 Sudoeste 0 -- -- 21
2020-08-25 14:00:00 28.9 17 Oeste 25 Sudoeste 0 -- -- 22
2020-08-25 13:00:00 28 12 Sudoeste 20 Sudoeste 0 -- -- 22
2020-08-25 12:00:00 26.6 8 Sudoeste 17 Sudoeste 0 -- -- 31
2020-08-25 11:00:00 24.5 8 Oeste 13 Sudoeste 0 -- -- 38
2020-08-25 10:00:00 22.7 7 Sudoeste 10 Sudoeste 0 -- -- 43
2020-08-25 09:00:00 21.4 3 Oeste 8 Noroeste 0 -- -- 55
2020-08-25 08:00:00 16.2 5 Oeste 6 Oeste 0 -- -- 67
2020-08-25 07:00:00 16.1 4 Oeste 7 Oeste 0 -- -- 66
2020-08-25 06:00:00 16.1 5 Oeste 7 Sudoeste 0 -- -- 67
2020-08-25 05:00:00 17.9 6 Sudoeste 8 Oeste 0 -- -- 59
2020-08-25 04:00:00 18.5 5 Sudoeste 6 Sudoeste 0 -- -- 56
2020-08-25 03:00:00 18.1 2 Sudeste 6 Noroeste 0 -- -- 60
2020-08-25 02:00:00 18.8 -- -- -- -- 0 -- -- 56
2020-08-25 01:00:00 20.1 2 Sur 6 Noroeste 0 -- -- 51
2020-08-25 00:00:00 19.7 3 Oeste 6 Noroeste 0 -- -- 53
2020-08-24 23:00:00 19.4 3 Oeste 9 Noroeste 0 -- -- 55
2020-08-24 22:00:00 21.3 7 Noroeste 9 Noroeste 0 -- -- 51
2020-08-24 21:00:00 25.2 5 Noroeste 12 Oeste 0 -- -- 42
2020-08-24 20:00:00 28.2 7 Oeste 15 Sudoeste 0 -- -- 32
2020-08-24 19:00:00 31 4 Oeste 23 Oeste 0 -- -- 27
2020-08-24 18:00:00 29.7 7 Sudeste 17 Sudeste 0 -- -- 31
2020-08-24 17:00:00 28.7 4 Sur 17 Sudeste 0 -- -- 34
2020-08-24 16:00:00 28.8 6 Sudeste 20 Este 0 -- -- 35
2020-08-24 15:00:00 27.4 11 Nordeste 19 Nordeste 0 -- -- 39
2020-08-24 14:00:00 25.9 8 Nordeste 30 Este 0 -- -- 42
2020-08-24 13:00:00 24.3 11 Este 24 Este 0 -- -- 45
2020-08-24 12:00:00 22.2 17 Nordeste 27 Este 0 -- -- 54
2020-08-24 11:00:00 19.3 22 Nordeste 34 Nordeste 0 -- -- 63
2020-08-24 10:00:00 17.3 26 Nordeste 35 Nordeste 0 -- -- 69
2020-08-24 09:00:00 14.7 17 Nordeste 26 Este 0 -- -- 81
2020-08-24 08:00:00 12.4 17 Nordeste 28 Nordeste 0 -- -- 90
2020-08-24 07:00:00 12.7 19 Nordeste 28 Nordeste 0 -- -- 91
2020-08-24 06:00:00 13 19 Nordeste 25 Nordeste 0 -- -- 90
2020-08-24 05:00:00 13.4 17 Nordeste 24 Nordeste 0 -- -- 88
2020-08-24 04:00:00 14.1 16 Nordeste 23 Este 0 -- -- 85
2020-08-24 03:00:00 14.7 17 Nordeste 21 Nordeste 0 -- -- 78
2020-08-24 02:00:00 16 15 Nordeste 25 Nordeste 0 -- -- 70
2020-08-24 01:00:00 16.9 13 Norte 17 Norte 0 -- -- 66
2020-08-24 00:00:00 18.1 -- -- -- -- 0 -- -- 61
2020-08-23 23:00:00 19.7 9 Nordeste 11 Nordeste 0 -- -- 53
2020-08-23 22:00:00 20.5 8 Este 13 Nordeste 0 -- -- 53
2020-08-23 21:00:00 23.9 6 Sudeste 14 Este 0 -- -- 44
2020-08-23 20:00:00 27.8 7 Noroeste 11 Norte 0 -- -- 35
2020-08-23 19:00:00 29.8 6 Nordeste 17 Noroeste 0 -- -- 31
2020-08-23 18:00:00 28.9 4 Oeste 16 Nordeste 0 -- -- 31
2020-08-23 17:00:00 30.5 5 Norte 15 Norte 0 -- -- 31
2020-08-23 16:00:00 26.7 6 Sur 21 Este 0 -- -- 35
2020-08-23 15:00:00 27.8 5 Noroeste 19 Nordeste 0 -- -- 33
2020-08-23 14:00:00 25.6 6 Este 21 Nordeste 0 -- -- 40
2020-08-23 13:00:00 24.6 8 Nordeste 25 Este 0 -- -- 47
2020-08-23 12:00:00 22.1 12 Nordeste 22 Este 0 -- -- 54
2020-08-23 11:00:00 20.1 13 Nordeste 27 Nordeste 0 -- -- 66
2020-08-23 10:00:00 17.2 17 Nordeste 26 Nordeste 0 -- -- 78
2020-08-23 09:00:00 14.3 18 Nordeste 25 Nordeste 0 -- -- 89
2020-08-23 08:00:00 11.5 12 Nordeste 17 Nordeste 0 -- -- 98
2020-08-23 07:00:00 11.1 13 Nordeste 17 Nordeste 0 -- -- 98
2020-08-23 06:00:00 12 13 Nordeste 23 Nordeste 0 -- -- 96
2020-08-23 05:00:00 12.7 17 Nordeste 26 Este 0 -- -- 91
2020-08-23 04:00:00 13.1 17 Este 22 Este 0 -- -- 80
2020-08-23 03:00:00 13.5 16 Este 23 Este 0 -- -- 72
2020-08-23 02:00:00 14.4 9 Nordeste 12 Nordeste 0 -- -- 67
2020-08-23 01:00:00 15.4 3 Norte 8 Oeste 0 -- -- 64
2020-08-23 00:00:00 16.8 7 Noroeste 11 Noroeste 0 -- -- 57
2020-08-22 23:00:00 17.7 5 Oeste 12 Oeste 0 -- -- 51
2020-08-22 22:00:00 19.5 4 Sudoeste 11 Oeste 0 -- -- 40
2020-08-22 21:00:00 22.6 8 Oeste 20 Oeste 0 -- -- 36
2020-08-22 20:00:00 24.8 12 Oeste 21 Sudoeste 0 -- -- 32
2020-08-22 19:00:00 26.7 9 Oeste 20 Sudoeste 0 -- -- 29
2020-08-22 18:00:00 26.3 13 Sudoeste 26 Sur 0 -- -- 27
2020-08-22 17:00:00 26.4 10 Sudoeste 26 Sudoeste 0 -- -- 27
2020-08-22 16:00:00 26.5 8 Sudoeste 19 Sudoeste 0 -- -- 25
2020-08-22 15:00:00 24.7 7 Sudoeste 21 Sudoeste 0 -- -- 27
2020-08-22 14:00:00 24.5 6 Oeste 17 Oeste 0 -- -- 34
2020-08-22 13:00:00 22.6 5 Sur 13 Sudoeste 0 -- -- 39
2020-08-22 12:00:00 21.5 4 Sudoeste 13 Sur 0 -- -- 53
2020-08-22 11:00:00 19.9 4 Norte 9 Nordeste 0 -- -- 63
2020-08-22 10:00:00 17.9 4 Norte 8 Norte 0 -- -- 73
2020-08-22 09:00:00 15.9 2 Nordeste 5 Nordeste 0 -- -- 79
2020-08-22 08:00:00 9.5 2 Nordeste 7 Nordeste 0 -- -- 100
2020-08-22 07:00:00 9.1 3 Noroeste 8 Sur 0 -- -- 95
2020-08-22 06:00:00 10.7 6 Sur 8 Sudoeste 0 -- -- 92
2020-08-22 05:00:00 10.8 4 Sur 7 Sur 0 -- -- 98
2020-08-22 04:00:00 10.8 2 Sudoeste 10 Oeste 0 -- -- 96
2020-08-22 03:00:00 12.5 7 Sudoeste 12 Oeste 0 -- -- 91
2020-08-22 02:00:00 13.1 11 Oeste 18 Oeste 0 -- -- 89
2020-08-22 01:00:00 13.7 12 Oeste 16 Oeste 0 -- -- 88
2020-08-22 00:00:00 14.7 9 Noroeste 19 Oeste 0 -- -- 85
2020-08-21 23:00:00 15.6 10 Noroeste 18 Oeste 0 -- -- 82
2020-08-21 22:00:00 17.4 11 Oeste 17 Oeste 0 -- -- 68
2020-08-21 21:00:00 19.9 13 Oeste 27 Oeste 0 -- -- 55
2020-08-21 20:00:00 21.5 21 Sudoeste 31 Sudoeste 0 -- -- 46
2020-08-21 19:00:00 22.7 19 Oeste 36 Sudoeste 0 -- -- 47
2020-08-21 18:00:00 22.5 21 Oeste 33 Oeste 0 -- -- 47
2020-08-21 17:00:00 22.1 22 Sudoeste 33 Sudoeste 0 -- -- 49
2020-08-21 16:00:00 22.5 21 Sudoeste 34 Sur 0 -- -- 44
2020-08-21 15:00:00 21.9 21 Sudoeste 32 Sudoeste 0 -- -- 40
2020-08-21 14:00:00 20.9 17 Sudoeste 28 Sudoeste 0 -- -- 52
2020-08-21 13:00:00 18.8 15 Sudoeste 25 Sudoeste 0 -- -- 69
2020-08-21 12:00:00 16.4 14 Sudoeste 22 Oeste 0 -- -- 81
2020-08-21 11:00:00 15.6 11 Sudoeste 17 Oeste 0 -- -- 86
2020-08-21 10:00:00 14.6 8 Oeste 14 Oeste 0 -- -- 86
2020-08-21 09:00:00 14.3 6 Oeste 9 Oeste 0 -- -- 97
2020-08-21 08:00:00 14.2 4 Oeste 9 Oeste 0 -- -- 100
2020-08-21 07:00:00 14.4 6 Sudoeste 10 Sudoeste 0 -- -- 100
2020-08-21 06:00:00 14.5 7 Sudoeste 13 Sudoeste 0 -- -- 100
2020-08-21 05:00:00 14.8 8 Sudoeste 15 Sudoeste 0 -- -- 100
2020-08-21 04:00:00 14.9 7 Sudoeste 15 Sudoeste 0 -- -- 100
2020-08-21 03:00:00 15.1 7 Sudoeste 14 Sur 0 -- -- 100
2020-08-21 02:00:00 15.2 7 Sudoeste 14 Sudoeste 0 -- -- 100
2020-08-21 01:00:00 15.4 9 Sudoeste 19 Sudoeste 0 -- -- 100
2020-08-21 00:00:00 15.3 9 Sur 17 Sudoeste 0 -- -- 100